createdAt,value
2019-01-24T00:02:11.439Z,43.47
2019-01-24T00:04:42.558Z,40.93
2019-01-24T00:07:16.349Z,41.33
2019-01-24T00:09:47.164Z,41.63
2019-01-24T00:12:18.863Z,44.10
2019-01-24T00:14:50.840Z,43.20
2019-01-24T00:17:22.014Z,41.87
2019-01-24T00:19:54.881Z,43.93
2019-01-24T00:22:25.997Z,38.03
2019-01-24T00:24:57.976Z,41.70
2019-01-24T00:27:31.289Z,39.47
2019-01-24T00:30:05.495Z,38.60
2019-01-24T00:32:36.430Z,42.93
2019-01-24T00:35:07.462Z,42.57
2019-01-24T00:37:38.620Z,41.73
2019-01-24T00:40:11.362Z,42.17
2019-01-24T00:42:44.679Z,43.13
2019-01-24T00:45:16.876Z,40.23
2019-01-24T00:47:47.741Z,41.13
2019-01-24T00:50:19.746Z,40.37
2019-01-24T00:52:51.869Z,41.87
2019-01-24T00:55:23.700Z,39.70
2019-01-24T00:57:58.487Z,38.13
2019-01-24T01:00:29.302Z,36.70
2019-01-24T01:03:00.752Z,36.23
2019-01-24T01:05:31.970Z,40.03
2019-01-24T01:08:02.778Z,43.57
2019-01-24T01:10:34.010Z,43.53
2019-01-24T01:13:05.098Z,44.90
2019-01-24T01:15:36.029Z,41.93
2019-01-24T01:18:07.522Z,43.67
2019-01-24T01:20:39.389Z,43.30
2019-01-24T01:23:12.473Z,44.13
2019-01-24T01:25:43.340Z,44.87
2019-01-24T01:28:14.342Z,45.30
2019-01-24T01:30:45.203Z,46.33
2019-01-24T01:33:16.351Z,47.60
2019-01-24T01:35:47.462Z,47.10
2019-01-24T01:38:18.298Z,46.47
2019-01-24T01:40:51.768Z,47.60
2019-01-24T01:43:28.744Z,50.00
2019-01-24T01:46:01.553Z,46.53
2019-01-24T01:48:32.774Z,47.97
2019-01-24T01:51:03.813Z,46.50
2019-01-24T01:53:34.763Z,45.87
2019-01-24T01:56:05.679Z,47.10
2019-01-24T01:58:37.638Z,48.10
2019-01-24T02:01:10.919Z,47.17
2019-01-24T02:03:44.815Z,50.47
2019-01-24T02:06:15.559Z,49.10
2019-01-24T02:08:47.305Z,48.37
2019-01-24T02:11:18.250Z,49.83
2019-01-24T02:13:49.034Z,49.87
2019-01-24T02:16:20.175Z,46.07
2019-01-24T02:18:51.105Z,46.00
2019-01-24T02:21:23.946Z,46.90
2019-01-24T02:23:54.738Z,45.67
2019-01-24T02:26:25.607Z,46.20
2019-01-24T02:28:57.294Z,47.10
2019-01-24T02:31:28.183Z,48.00
2019-01-24T02:33:59.037Z,45.13
2019-01-24T02:36:29.977Z,48.93
2019-01-24T02:39:00.882Z,48.83
2019-01-24T02:41:33.280Z,44.43
2019-01-24T02:44:04.200Z,45.57
2019-01-24T02:46:34.974Z,46.63
2019-01-24T02:49:05.812Z,46.47
2019-01-24T02:51:36.902Z,43.77
2019-01-24T02:54:07.764Z,44.80
2019-01-24T02:56:39.220Z,46.57
2019-01-24T02:59:10.449Z,47.53
2019-01-24T03:01:41.279Z,46.00
2019-01-24T03:04:12.458Z,45.30
2019-01-24T03:06:43.452Z,48.53
2019-01-24T03:09:15.409Z,47.10
2019-01-24T03:11:46.584Z,48.03
2019-01-24T03:14:17.454Z,46.67
2019-01-24T03:16:48.374Z,47.57
2019-01-24T03:19:19.686Z,45.03
2019-01-24T03:21:51.878Z,46.00
2019-01-24T03:24:22.762Z,47.27
2019-01-24T03:26:56.675Z,47.77
2019-01-24T03:29:28.506Z,50.93
2019-01-24T03:31:59.750Z,48.63
2019-01-24T03:34:30.584Z,47.50
2019-01-24T03:37:02.765Z,47.43
2019-01-24T03:39:33.585Z,49.47
2019-01-24T03:42:04.541Z,44.13
2019-01-24T03:44:35.646Z,45.93
2019-01-24T03:47:09.394Z,46.57
2019-01-24T03:49:43.193Z,47.80
2019-01-24T03:52:14.324Z,47.37
2019-01-24T03:54:45.207Z,47.90
2019-01-24T03:57:16.110Z,47.47
2019-01-24T03:59:46.902Z,48.33
2019-01-24T04:02:19.108Z,46.30
2019-01-24T04:04:49.957Z,47.23
2019-01-24T04:07:20.810Z,48.43
2019-01-24T04:09:51.621Z,45.67
2019-01-24T04:12:23.712Z,45.80
2019-01-24T04:14:54.614Z,48.63
2019-01-24T04:17:27.810Z,46.03
2019-01-24T04:19:59.616Z,46.10
2019-01-24T04:22:30.920Z,47.80
2019-01-24T04:25:01.705Z,45.30
2019-01-24T04:27:33.743Z,48.00
2019-01-24T04:30:10.965Z,49.10
2019-01-24T04:32:43.389Z,46.23
2019-01-24T04:35:20.106Z,48.60
2019-01-24T04:37:49.255Z,45.67
2019-01-24T04:40:21.515Z,48.10
2019-01-24T04:42:55.363Z,48.97
2019-01-24T04:45:26.138Z,47.80
2019-01-24T04:47:59.916Z,47.77
2019-01-24T04:50:41.105Z,48.73
2019-01-24T04:53:13.547Z,47.90
2019-01-24T04:55:50.134Z,50.57
2019-01-24T04:58:26.322Z,50.00
2019-01-24T05:00:54.812Z,48.43
2019-01-24T05:03:45.370Z,46.63
2019-01-24T05:06:19.766Z,48.67
2019-01-24T05:08:50.924Z,49.50
2019-01-24T05:11:23.175Z,49.67
2019-01-24T05:13:55.770Z,44.73
2019-01-24T05:16:26.826Z,51.67
2019-01-24T05:18:58.962Z,48.67
2019-01-24T05:21:30.902Z,50.47
2019-01-24T05:24:01.819Z,49.20
2019-01-24T05:26:32.649Z,53.87
2019-01-24T05:29:03.527Z,52.53
2019-01-24T05:31:37.464Z,48.47
2019-01-24T05:34:12.757Z,50.57
2019-01-24T05:36:46.821Z,48.77
2019-01-24T05:39:17.979Z,46.07
2019-01-24T05:41:50.366Z,48.70
2019-01-24T05:44:21.256Z,50.17
2019-01-24T05:46:52.193Z,48.77
2019-01-24T05:49:24.336Z,46.50
2019-01-24T05:51:55.147Z,47.33
2019-01-24T05:54:26.029Z,48.07
2019-01-24T05:56:58.435Z,50.17
2019-01-24T05:59:29.468Z,50.23
2019-01-24T06:02:02.836Z,49.63
2019-01-24T06:04:35.488Z,48.27
2019-01-24T06:07:06.804Z,48.57
2019-01-24T06:09:41.007Z,48.20
2019-01-24T06:12:11.819Z,48.37
2019-01-24T06:14:43.728Z,47.57
2019-01-24T06:17:15.664Z,47.53
2019-01-24T06:19:46.657Z,48.53
2019-01-24T06:22:20.543Z,49.27
2019-01-24T06:24:54.826Z,47.57
2019-01-24T06:27:27.167Z,47.77
2019-01-24T06:29:57.980Z,46.80
2019-01-24T06:32:30.751Z,49.87
2019-01-24T06:35:01.582Z,47.83
2019-01-24T06:37:33.465Z,47.67
2019-01-24T06:40:04.373Z,48.80
2019-01-24T06:42:35.786Z,49.67
2019-01-24T06:45:08.379Z,47.70
2019-01-24T06:47:39.330Z,48.23
2019-01-24T06:50:11.887Z,49.20
2019-01-24T06:52:44.849Z,47.43
2019-01-24T06:55:18.183Z,48.70
2019-01-24T06:57:50.144Z,50.17
2019-01-24T07:00:22.582Z,45.13
2019-01-24T07:02:53.387Z,50.73
2019-01-24T07:05:24.392Z,48.07
2019-01-24T07:07:55.566Z,50.97
2019-01-24T07:10:26.937Z,48.80
2019-01-24T07:13:03.980Z,50.97
2019-01-24T07:15:37.324Z,48.83
2019-01-24T07:18:08.624Z,49.40
2019-01-24T07:20:41.577Z,45.63
2019-01-24T07:23:13.015Z,49.93
2019-01-24T07:25:43.815Z,50.90
2019-01-24T07:28:18.823Z,48.90
2019-01-24T07:30:49.723Z,49.23
2019-01-24T07:33:29.344Z,50.20
2019-01-24T07:36:02.352Z,49.87
2019-01-24T07:38:33.509Z,51.07
2019-01-24T07:41:06.874Z,48.97
2019-01-24T07:43:38.839Z,46.93
2019-01-24T07:46:11.753Z,47.90
2019-01-24T07:48:42.774Z,47.53
2019-01-24T07:51:13.594Z,44.80
2019-01-24T07:53:45.576Z,49.30
2019-01-24T07:56:17.709Z,49.53
2019-01-24T07:58:48.498Z,46.27
2019-01-24T08:01:19.310Z,48.50
2019-01-24T08:03:51.014Z,46.33
2019-01-24T08:06:22.003Z,46.87
2019-01-24T08:08:53.047Z,48.33
2019-01-24T08:11:24.342Z,49.40
2019-01-24T08:13:55.363Z,48.90
2019-01-24T08:16:26.594Z,49.00
2019-01-24T08:19:00.356Z,47.37
2019-01-24T08:21:31.226Z,47.93
2019-01-24T08:24:02.390Z,51.33
2019-01-24T08:26:33.466Z,49.70
2019-01-24T08:29:05.038Z,51.20
2019-01-24T08:31:36.202Z,49.13
2019-01-24T08:34:08.069Z,48.90
2019-01-24T08:36:40.492Z,50.13
2019-01-24T08:39:11.280Z,51.97
2019-01-24T08:41:42.568Z,49.63
2019-01-24T08:44:16.778Z,48.93
2019-01-24T08:46:52.057Z,50.50
2019-01-24T08:49:23.464Z,51.60
2019-01-24T08:51:56.193Z,49.57
2019-01-24T08:54:27.095Z,49.57
2019-01-24T08:56:58.427Z,48.47
2019-01-24T08:59:29.687Z,49.47
2019-01-24T09:02:06.444Z,53.70
2019-01-24T09:04:38.848Z,55.40
2019-01-24T09:07:15.382Z,54.97
2019-01-24T09:09:56.931Z,56.83
2019-01-24T09:12:30.508Z,54.57
2019-01-24T09:15:12.484Z,56.27
2019-01-24T09:17:43.469Z,53.80
2019-01-24T09:20:15.745Z,55.93
2019-01-24T09:22:47.111Z,55.30
2019-01-24T09:25:19.010Z,54.37
2019-01-24T09:27:50.155Z,53.17
2019-01-24T09:30:23.168Z,55.57
2019-01-24T09:32:55.133Z,54.73
2019-01-24T09:35:25.966Z,56.40
2019-01-24T09:38:00.658Z,52.93
2019-01-24T09:40:31.402Z,53.17
2019-01-24T09:43:03.200Z,53.67
2019-01-24T09:45:34.450Z,56.03
2019-01-24T09:48:32.214Z,52.57
2019-01-24T09:51:06.630Z,55.23
2019-01-24T09:53:38.476Z,51.63
2019-01-24T09:56:09.954Z,53.63
2019-01-24T09:58:40.814Z,51.60
2019-01-24T10:01:11.667Z,51.27
2019-01-24T10:03:42.745Z,50.33
2019-01-24T10:06:14.578Z,62.87
2019-01-24T10:08:47.917Z,56.13
2019-01-24T10:11:24.232Z,50.73
2019-01-24T10:13:55.727Z,45.83
2019-01-24T10:16:28.443Z,45.50
2019-01-24T10:18:59.351Z,53.60
2019-01-24T10:21:31.715Z,49.07
2019-01-24T10:24:10.979Z,48.90
2019-01-24T10:26:42.028Z,48.20
2019-01-24T10:29:23.743Z,47.87
2019-01-24T10:31:54.527Z,50.90
2019-01-24T10:34:29.866Z,49.30
2019-01-24T10:37:01.069Z,47.77
2019-01-24T10:39:31.895Z,51.57
2019-01-24T10:42:02.684Z,51.30
2019-01-24T10:44:33.741Z,51.47
2019-01-24T10:47:04.689Z,52.23
2019-01-24T10:49:38.364Z,54.43
2019-01-24T10:52:13.059Z,50.73
2019-01-24T10:54:44.580Z,54.13
2019-01-24T10:57:15.441Z,50.10
2019-01-24T10:59:46.893Z,48.60
2019-01-24T11:02:18.898Z,47.77
2019-01-24T11:04:49.715Z,49.27
2019-01-24T11:07:27.969Z,52.50
2019-01-24T11:09:58.783Z,52.37
2019-01-24T11:12:51.840Z,49.53
2019-01-24T11:15:30.148Z,52.90
2019-01-24T11:18:02.734Z,55.83
2019-01-24T11:20:35.944Z,55.17
2019-01-24T11:23:07.195Z,51.27
2019-01-24T11:25:38.355Z,54.00
2019-01-24T11:28:09.714Z,53.27
2019-01-24T11:30:40.734Z,49.53
2019-01-24T11:33:13.273Z,50.33
2019-01-24T11:35:53.547Z,47.97
2019-01-24T11:38:45.147Z,49.10
2019-01-24T11:41:19.678Z,49.30
2019-01-24T11:44:00.168Z,50.43
2019-01-24T11:46:53.156Z,53.77
2019-01-24T11:49:44.068Z,54.83
2019-01-24T11:52:15.960Z,54.57
2019-01-24T11:54:48.016Z,53.17
2019-01-24T11:57:19.097Z,48.83
2019-01-24T11:59:50.008Z,51.63
2019-01-24T12:02:21.863Z,52.50
2019-01-24T12:04:52.831Z,49.70
2019-01-24T12:07:27.494Z,49.20
2019-01-24T12:09:59.523Z,47.60
2019-01-24T12:12:30.717Z,51.83
2019-01-24T12:15:01.536Z,52.70
2019-01-24T12:17:32.389Z,50.13
2019-01-24T12:20:03.420Z,44.47
2019-01-24T12:22:38.661Z,49.60
2019-01-24T12:25:09.846Z,47.17
2019-01-24T12:27:41.176Z,48.07
2019-01-24T12:30:21.759Z,47.53
2019-01-24T12:32:52.693Z,43.83
2019-01-24T12:35:24.120Z,47.40
2019-01-24T12:37:58.239Z,46.00
2019-01-24T12:40:30.042Z,46.53
2019-01-24T12:43:01.039Z,44.67
2019-01-24T12:45:34.957Z,44.27
2019-01-24T12:48:08.354Z,44.30
2019-01-24T12:50:41.523Z,45.43
2019-01-24T12:53:13.699Z,46.17
2019-01-24T12:55:45.404Z,44.07
2019-01-24T12:58:17.138Z,40.83
2019-01-24T13:00:50.839Z,44.80
2019-01-24T13:03:22.833Z,49.73
2019-01-24T13:05:54.967Z,46.03
2019-01-24T13:08:29.225Z,46.17
2019-01-24T13:11:01.605Z,44.13
2019-01-24T13:13:36.671Z,45.53
2019-01-24T13:20:21.560Z,44.03
2019-01-24T13:22:56.001Z,44.83
2019-01-24T13:25:29.303Z,42.50
2019-01-24T13:28:00.522Z,43.07
2019-01-24T13:30:33.092Z,42.63
2019-01-24T13:33:06.185Z,59.97
2019-01-24T13:35:37.266Z,49.80
2019-01-24T13:38:08.813Z,44.37
2019-01-24T13:40:44.388Z,41.77
2019-01-24T13:43:15.393Z,41.83
2019-01-24T13:45:46.535Z,44.20
2019-01-24T13:48:23.466Z,44.77
2019-01-24T13:50:57.276Z,43.13
2019-01-24T13:53:31.933Z,43.40
2019-01-24T13:56:04.011Z,43.10
2019-01-24T13:58:34.844Z,39.97
2019-01-24T14:01:12.676Z,39.53
2019-01-24T14:04:11.051Z,39.30
2019-01-24T14:06:43.927Z,39.57
2019-01-24T14:09:16.003Z,42.07
2019-01-24T14:11:47.221Z,40.00
2019-01-24T14:14:20.762Z,37.00
2019-01-24T14:16:52.423Z,37.23
2019-01-24T14:19:26.267Z,35.27
2019-01-24T14:21:57.414Z,38.37
2019-01-24T14:24:28.524Z,37.80
2019-01-24T14:26:59.379Z,37.90
2019-01-24T14:29:39.282Z,45.47
2019-01-24T14:32:23.515Z,37.30
2019-01-24T14:34:54.664Z,42.67
2019-01-24T14:37:39.645Z,44.63
2019-01-24T14:40:06.510Z,43.43
2019-01-24T14:42:38.683Z,43.93
2019-01-24T14:45:19.228Z,46.07
2019-01-24T14:47:51.624Z,44.07
2019-01-24T14:50:44.384Z,45.47
2019-01-24T14:53:17.831Z,45.37
2019-01-24T14:55:48.711Z,45.47
2019-01-24T14:58:22.613Z,46.50
2019-01-24T15:01:01.040Z,47.07
2019-01-24T15:03:32.081Z,45.73
2019-01-24T15:06:03.332Z,46.13
2019-01-24T15:08:35.628Z,47.30
2019-01-24T15:11:07.732Z,47.87
2019-01-24T15:13:41.437Z,45.30
2019-01-24T15:16:12.482Z,46.57
2019-01-24T15:18:43.505Z,45.93
2019-01-24T15:21:16.765Z,47.27
2019-01-24T15:23:53.149Z,47.37
2019-01-24T15:26:25.281Z,46.83
2019-01-24T15:28:56.088Z,49.40
2019-01-24T15:31:29.107Z,46.87
2019-01-24T15:34:03.017Z,49.40
2019-01-24T15:36:40.047Z,48.80
2019-01-24T15:39:15.457Z,45.87
2019-01-24T15:41:54.495Z,48.23
2019-01-24T15:44:28.921Z,48.43
2019-01-24T15:47:02.913Z,49.30
2019-01-24T15:49:36.918Z,55.90
2019-01-24T15:52:13.743Z,51.10
2019-01-24T15:54:53.413Z,47.33
2019-01-24T15:57:32.202Z,47.03
2019-01-24T16:00:09.424Z,47.97
2019-01-24T16:02:41.968Z,50.13
2019-01-24T16:05:15.092Z,50.43
2019-01-24T16:07:47.732Z,47.57
2019-01-24T16:10:19.631Z,46.30
2019-01-24T16:12:51.679Z,48.33
2019-01-24T16:15:25.364Z,46.40
2019-01-24T16:18:03.927Z,47.83
2019-01-24T16:20:42.756Z,45.60
2019-01-24T16:23:17.824Z,45.63
2019-01-24T16:25:55.658Z,48.23
2019-01-24T16:28:29.801Z,45.77
2019-01-24T16:31:12.739Z,44.77
2019-01-24T16:33:54.579Z,42.83
2019-01-24T16:36:27.013Z,46.97
2019-01-24T16:39:03.371Z,46.97
2019-01-24T16:41:36.113Z,45.13
2019-01-24T16:44:07.510Z,45.77
2019-01-24T16:46:40.174Z,45.93
2019-01-24T16:49:11.192Z,50.63
2019-01-24T16:51:49.339Z,44.67
2019-01-24T16:54:42.530Z,46.03
2019-01-24T16:57:23.569Z,47.73
2019-01-24T16:59:56.350Z,44.27
2019-01-24T17:02:27.612Z,45.73
2019-01-24T17:05:06.458Z,44.57
2019-01-24T17:07:51.574Z,46.13
2019-01-24T17:10:23.918Z,43.80
2019-01-24T17:13:00.093Z,44.20
2019-01-24T17:15:39.760Z,43.63
2019-01-24T17:18:22.023Z,44.13
2019-01-24T17:21:00.606Z,40.80
2019-01-24T17:23:38.743Z,46.33
2019-01-24T17:26:23.985Z,42.53
2019-01-24T17:28:53.306Z,43.83
2019-01-24T17:31:28.206Z,46.50
2019-01-24T17:34:01.891Z,48.03
2019-01-24T17:36:40.270Z,45.23
2019-01-24T17:39:14.908Z,44.00
2019-01-24T17:41:57.876Z,45.17
2019-01-24T17:44:31.567Z,45.60
2019-01-24T17:47:06.981Z,47.50
2019-01-24T17:49:40.450Z,46.83
2019-01-24T17:52:18.017Z,46.70
2019-01-24T17:54:51.597Z,46.03
2019-01-24T17:57:31.385Z,44.33
2019-01-24T18:00:02.482Z,45.90
2019-01-24T18:02:38.597Z,45.90
2019-01-24T18:05:12.028Z,46.83
2019-01-24T18:07:43.330Z,46.27
2019-01-24T18:10:19.987Z,47.77
2019-01-24T18:12:53.364Z,45.03
2019-01-24T18:15:28.270Z,45.77
2019-01-24T18:17:59.814Z,47.00
2019-01-24T18:20:39.406Z,47.10
2019-01-24T18:23:10.395Z,46.10
2019-01-24T18:25:59.439Z,47.70
2019-01-24T18:28:47.126Z,47.83
2019-01-24T18:31:21.988Z,43.97
2019-01-24T18:33:54.142Z,45.13
2019-01-24T18:36:29.451Z,44.97
2019-01-24T18:39:11.810Z,45.17
2019-01-24T18:41:47.477Z,45.73
2019-01-24T18:44:18.372Z,45.07
2019-01-24T18:46:50.868Z,46.40
2019-01-24T18:49:23.698Z,47.10
2019-01-24T18:51:55.639Z,46.00
2019-01-24T18:54:33.199Z,45.90
2019-01-24T18:57:14.515Z,46.87
2019-01-24T18:59:47.922Z,45.03
2019-01-24T19:02:23.382Z,44.13
2019-01-24T19:04:54.292Z,45.37
2019-01-24T19:07:27.738Z,44.37
2019-01-24T19:10:04.799Z,43.97
2019-01-24T19:12:38.469Z,48.33
2019-01-24T19:15:12.591Z,44.63
2019-01-24T19:17:43.615Z,45.87
2019-01-24T19:20:20.320Z,45.83
2019-01-24T19:22:57.247Z,46.63
2019-01-24T19:25:31.837Z,47.67
2019-01-24T19:28:04.892Z,47.43
2019-01-24T19:30:40.348Z,45.67
2019-01-24T19:33:11.771Z,45.40
2019-01-24T19:35:44.874Z,47.07
2019-01-24T19:38:20.405Z,46.07
2019-01-24T19:40:56.276Z,47.63
2019-01-24T19:43:32.001Z,46.53
2019-01-24T19:46:04.963Z,47.53
2019-01-24T19:48:50.973Z,48.17
2019-01-24T19:51:22.249Z,50.37
2019-01-24T19:54:00.466Z,47.63
2019-01-24T19:56:36.938Z,50.07
2019-01-24T19:59:16.332Z,49.90
2019-01-24T20:02:04.718Z,46.37
2019-01-24T20:04:36.508Z,45.83
2019-01-24T20:07:14.182Z,45.07
2019-01-24T20:09:53.043Z,46.43
2019-01-24T20:12:27.319Z,46.47
2019-01-24T20:15:01.766Z,49.33
2019-01-24T20:17:35.379Z,49.10
2019-01-24T20:20:13.479Z,51.13
2019-01-24T20:22:48.283Z,49.80
2019-01-24T20:25:26.538Z,47.53
2019-01-24T20:28:00.380Z,49.23
2019-01-24T20:30:33.182Z,45.67
2019-01-24T20:33:04.478Z,47.87
2019-01-24T20:35:47.311Z,45.83
2019-01-24T20:38:18.473Z,46.83
2019-01-24T20:40:51.440Z,45.97
2019-01-24T20:43:22.443Z,44.43
2019-01-24T20:45:53.556Z,45.27
2019-01-24T20:48:34.458Z,43.23
2019-01-24T20:51:07.981Z,42.73
2019-01-24T20:53:39.375Z,46.10
2019-01-24T20:56:16.058Z,45.47
2019-01-24T20:58:47.233Z,42.93
2019-01-24T21:01:18.067Z,44.23
2019-01-24T21:03:55.317Z,43.27
2019-01-24T21:06:24.471Z,44.07
2019-01-24T21:08:56.030Z,43.93
2019-01-24T21:11:29.899Z,43.67
2019-01-24T21:14:00.796Z,44.93
2019-01-24T21:16:31.941Z,43.30
2019-01-24T21:19:05.705Z,44.47
2019-01-24T21:21:36.932Z,45.53
2019-01-24T21:24:10.449Z,43.57
2019-01-24T21:26:47.838Z,43.07
2019-01-24T21:29:19.203Z,45.00
2019-01-24T21:31:56.519Z,45.93
2019-01-24T21:34:33.518Z,43.57
2019-01-24T21:37:10.657Z,45.10
2019-01-24T21:39:45.243Z,45.27
2019-01-24T21:42:19.281Z,43.63
2019-01-24T21:44:51.962Z,44.27
2019-01-24T21:47:23.709Z,44.93
2019-01-24T21:49:56.246Z,44.63
2019-01-24T21:52:27.559Z,44.27
2019-01-24T21:54:58.476Z,45.03
2019-01-24T21:57:29.803Z,40.43
2019-01-24T22:00:06.028Z,43.40
2019-01-24T22:02:38.484Z,45.57
2019-01-24T22:05:09.854Z,43.30
2019-01-24T22:07:41.021Z,44.63
2019-01-24T22:10:14.498Z,42.87
2019-01-24T22:12:45.487Z,46.63
2019-01-24T22:15:18.285Z,44.43
2019-01-24T22:17:50.453Z,45.97
2019-01-24T22:20:22.618Z,45.40
2019-01-24T22:22:54.649Z,44.83
2019-01-24T22:25:29.991Z,45.20
2019-01-24T22:28:01.201Z,47.13
2019-01-24T22:30:37.667Z,46.30
2019-01-24T22:33:08.610Z,45.47
2019-01-24T22:35:39.421Z,45.70
2019-01-24T22:38:16.199Z,44.03
2019-01-24T22:40:48.759Z,45.47
2019-01-24T22:43:21.061Z,42.33
2019-01-24T22:45:52.537Z,43.77
2019-01-24T22:48:24.248Z,44.87
2019-01-24T22:51:02.871Z,42.40
2019-01-24T22:53:34.288Z,42.67
2019-01-24T22:56:06.312Z,43.10
2019-01-24T22:58:37.409Z,43.93
2019-01-24T23:01:45.085Z,44.93
2019-01-24T23:04:24.454Z,42.43
2019-01-24T23:06:55.727Z,40.87
2019-01-24T23:09:26.844Z,42.50
2019-01-24T23:12:00.511Z,43.33
2019-01-24T23:14:32.733Z,42.67
2019-01-24T23:17:03.622Z,42.20
2019-01-24T23:19:34.966Z,42.00
2019-01-24T23:22:06.198Z,41.13
2019-01-24T23:24:38.736Z,42.17
2019-01-24T23:27:13.625Z,40.73
2019-01-24T23:29:45.893Z,40.73
2019-01-24T23:32:17.250Z,42.77
2019-01-24T23:34:48.681Z,40.47
2019-01-24T23:37:28.534Z,40.43
2019-01-24T23:39:59.586Z,41.70
2019-01-24T23:42:30.956Z,42.77
2019-01-24T23:45:05.936Z,38.83
2019-01-24T23:47:39.708Z,41.10
2019-01-24T23:50:11.601Z,41.93
2019-01-24T23:52:43.165Z,42.53
2019-01-24T23:55:20.031Z,40.93
2019-01-24T23:57:51.044Z,40.97
